首页
METAR-TAF:

METAR-TAF

机场 :

Pearson Field

溫哥華, 华盛顿, 美国

纬度: 45-37-24N, 经度: 122-39-23W, 海拔: 7米

当前天气观测

该预报发布于1小时和1分钟前的04:53 UTC
风速8节,风向西
温度 9°C
湿度 71%
气压 1013 hPa
能見度: 16.1公里
散云层高于4000英尺
阴天层高于5000英尺
小雨

METAR: KVUO 120453Z AUTO 28008KT 10SM -RA SCT040 OVC050 09/04 A2992 RMK AO2 RAB34 SLP132 P0001 T00890044

时间: 21:54 (05:54 UTC)


TAF: 丢失

超过4000个机场的气象观测和天气预报(METAR&TAF报告)。

可查询的气象台以黄色和红色小点在地图上表示。

将鼠标移到小点上方,可查看气象台名称。

然后点击查看天气观测和预报。

如需切换地图:点击带黑十字的绿色按钮放大地图;点击带横线的绿色按钮缩小地图;或者点击绿色箭头查看邻近地区的地图。


METAR-TAF: